Terminal Aerodrome Forecast
Issued by NWS

Home | Current Version | Previous Version | Text Only | Print | Product List | Glossary On
Versions: 1 2 3 4 5 6 7 8 9 10 11 12
336
FTUS46 KMTR 211729
TAFSJC
TAF
KSJC 211729Z 2118/2218 13006KT P6SM SCT100 SCT200
     FM212200 26007KT P6SM FEW020 OVC100
     FM220200 16005KT P6SM FEW020 OVC100
     FM220400 15010KT P6SM FEW020 SCT035 OVC080
     FM220900 14010KT P6SM BKN018 OVC060 PROB30 2209/2213 P6SM -RA
     FM221300 14008KT P6SM BKN020 OVC060 PROB30 2213/2217 P6SM -RA=

USA.gov is the U.S. government's official web portal to all federal, state and local government web resources and services.